Lake Edwards, Minnesota
Current Conditions -  °F | °C
As of 3:53 PM on Saturday 25 Oct 2014 (Local Time) from KBRD Reporting Station
Clear Clear  
Wind Chill: 57°   Ceiling: Unl
Heat Index: 57°   Visibility: 10mi
Dew Point: 21°   Wind: 20mph
Humidity: 25%   Direction: 300°WNW
Pressure: 30.03"   Gusts: 26mph
Location:  46.5121°N, 94.2802°W
Report Text: KBRD 252053Z AUTO 30017G23KT 10SM CLR 14/M06 A3003 RMK AO2 SLP173 T01391061 53001
Loading
Personal Weather Stations






























Interactive Weather Map
Tropical Storm Tracking
New forecast layout! Learn more

10-Day Weather Forecast

Advertisements
Track Severe Weather on mobile